createdAt,value
2022-10-10T00:02:22.214Z,101680.84
2022-10-10T00:04:48.822Z,101667.94
2022-10-10T00:07:15.140Z,101678.06
2022-10-10T00:09:41.441Z,101672.19
2022-10-10T00:12:07.759Z,101670.81
2022-10-10T00:14:34.073Z,101672.97
2022-10-10T00:17:00.405Z,101663.56
2022-10-10T00:19:26.709Z,101667.84
2022-10-10T00:21:53.018Z,101667.84
2022-10-10T00:24:19.331Z,101663.56
2022-10-10T00:26:45.668Z,101661.97
2022-10-10T00:29:11.985Z,101654.81
2022-10-10T00:31:38.299Z,101654.81
2022-10-10T00:34:04.621Z,101656.19
2022-10-10T00:36:30.962Z,101649.06
2022-10-10T00:38:57.275Z,101647.53
2022-10-10T00:41:24.056Z,101640.28
2022-10-10T00:44:02.435Z,101641.78
2022-10-10T00:46:28.775Z,101638.03
2022-10-10T00:48:55.092Z,101640.28
2022-10-10T00:51:21.418Z,101628.00
2022-10-10T00:53:48.637Z,101626.50
2022-10-10T00:56:15.204Z,101621.50
2022-10-10T00:58:42.217Z,101625.78
2022-10-10T01:01:08.602Z,101617.13
2022-10-10T01:03:34.923Z,101623.63
2022-10-10T01:06:01.243Z,101618.50
2022-10-10T01:08:27.574Z,101616.38
2022-10-10T01:11:12.170Z,101617.75
2022-10-10T01:13:52.353Z,101611.25
2022-10-10T01:16:22.199Z,101615.44
2022-10-10T01:18:52.344Z,101609.75
2022-10-10T01:21:30.738Z,101608.25
2022-10-10T01:24:15.800Z,101595.25
2022-10-10T01:26:58.215Z,101601.00
2022-10-10T01:29:26.508Z,101601.75
2022-10-10T01:31:54.270Z,101590.84
2022-10-10T01:34:25.835Z,101586.50
2022-10-10T01:36:59.109Z,101590.84
2022-10-10T01:39:35.292Z,101579.34
2022-10-10T01:42:03.275Z,101584.34
2022-10-10T01:44:29.585Z,101579.22
2022-10-10T01:46:55.912Z,101579.97
2022-10-10T01:49:22.946Z,101574.19
2022-10-10T01:52:08.061Z,101573.47
2022-10-10T01:54:37.155Z,101574.84
2022-10-10T01:57:18.142Z,101566.22
2022-10-10T02:00:02.348Z,101566.22
2022-10-10T02:02:33.262Z,101564.69
2022-10-10T02:05:04.708Z,101561.81
2022-10-10T02:07:44.237Z,101555.94
2022-10-10T02:10:10.599Z,101548.72
2022-10-10T02:12:36.914Z,101551.59
2022-10-10T02:15:06.158Z,101549.44
2022-10-10T02:17:33.109Z,101548.72
2022-10-10T02:19:59.460Z,101548.72
2022-10-10T02:22:25.924Z,101538.66
2022-10-10T02:24:52.257Z,101535.69
2022-10-10T02:27:20.696Z,101529.94
2022-10-10T02:29:47.024Z,101533.56
2022-10-10T02:32:19.527Z,101532.03
2022-10-10T02:34:46.973Z,101527.69
2022-10-10T02:37:13.467Z,101521.16
2022-10-10T02:39:43.935Z,101514.03
2022-10-10T02:42:10.281Z,101524.03
2022-10-10T02:44:36.854Z,101521.16
2022-10-10T02:47:03.161Z,101516.16
2022-10-10T02:49:30.294Z,101505.38
2022-10-10T02:51:56.655Z,101514.13
2022-10-10T02:54:22.995Z,101509.84
2022-10-10T02:56:49.307Z,101512.84
2022-10-10T02:59:15.638Z,101502.09
2022-10-10T03:01:41.952Z,101501.41
2022-10-10T03:04:08.265Z,101495.75
2022-10-10T03:06:34.581Z,101491.50
2022-10-10T03:09:00.922Z,101481.34
2022-10-10T03:11:27.237Z,101476.22
2022-10-10T03:13:53.554Z,101479.97
2022-10-10T03:16:19.861Z,101479.22
2022-10-10T03:18:46.174Z,101474.97
2022-10-10T03:21:12.494Z,101471.34
2022-10-10T03:23:38.829Z,101469.94
2022-10-10T03:26:05.153Z,101471.41
2022-10-10T03:28:31.496Z,101471.41
2022-10-10T03:30:57.823Z,101457.88
2022-10-10T03:33:24.139Z,101454.22
2022-10-10T03:35:50.508Z,101452.13
2022-10-10T03:38:17.099Z,101451.34
2022-10-10T03:40:43.617Z,101458.63
2022-10-10T03:43:10.606Z,101451.34
2022-10-10T03:45:36.930Z,101448.56
2022-10-10T03:48:03.394Z,101442.81
2022-10-10T03:50:29.721Z,101442.06
2022-10-10T03:52:56.043Z,101434.91
2022-10-10T03:55:22.407Z,101438.56
2022-10-10T03:57:48.727Z,101424.16
2022-10-10T04:00:15.067Z,101428.50
2022-10-10T04:02:41.379Z,101422.75
2022-10-10T04:05:07.932Z,101419.88
2022-10-10T04:07:34.249Z,101415.50
2022-10-10T04:10:00.630Z,101403.97
2022-10-10T04:12:26.944Z,101409.75
2022-10-10T04:14:53.245Z,101410.47
2022-10-10T04:17:19.555Z,101399.69
2022-10-10T04:19:45.869Z,101411.22
2022-10-10T04:22:12.363Z,101401.19
2022-10-10T04:24:38.679Z,101393.41
2022-10-10T04:27:05.015Z,101386.13
2022-10-10T04:29:31.341Z,101381.09
2022-10-10T04:31:57.642Z,101382.59
2022-10-10T04:34:23.967Z,101368.19
2022-10-10T04:36:50.284Z,101366.78
2022-10-10T04:39:16.602Z,101372.56
2022-10-10T04:41:42.919Z,101370.34
2022-10-10T04:44:09.243Z,101366.06
2022-10-10T04:46:35.563Z,101363.81
2022-10-10T04:49:01.916Z,101356.56
2022-10-10T04:51:28.229Z,101348.03
2022-10-10T04:53:54.568Z,101344.41
2022-10-10T04:56:20.891Z,101345.44
2022-10-10T04:58:47.214Z,101338.28
2022-10-10T05:01:13.549Z,101338.38
2022-10-10T05:03:39.942Z,101337.63
2022-10-10T05:06:06.309Z,101331.88
2022-10-10T05:08:32.639Z,101333.72
2022-10-10T05:10:58.977Z,101326.25
2022-10-10T05:13:25.319Z,101330.47
2022-10-10T05:15:52.212Z,101337.38
2022-10-10T05:18:19.107Z,101329.03
2022-10-10T05:20:47.609Z,101332.78
2022-10-10T05:23:14.174Z,101330.00
2022-10-10T05:25:42.878Z,101331.47
2022-10-10T05:28:09.251Z,101332.22
2022-10-10T05:30:35.603Z,101330.94
2022-10-10T05:33:01.937Z,101336.69
2022-10-10T05:35:28.241Z,101328.16
2022-10-10T05:37:54.571Z,101325.28
2022-10-10T05:40:20.917Z,101328.16
2022-10-10T05:42:47.242Z,101331.03
2022-10-10T05:45:13.572Z,101322.97
2022-10-10T05:47:39.927Z,101322.09
2022-10-10T05:50:06.514Z,101319.84
2022-10-10T05:52:33.059Z,101322.63
2022-10-10T05:54:59.378Z,101315.53
2022-10-10T05:57:25.747Z,101310.13
2022-10-10T05:59:52.078Z,101313.09
2022-10-10T06:02:21.152Z,101315.84
2022-10-10T06:04:47.502Z,101314.75
2022-10-10T06:07:13.843Z,101311.34
2022-10-10T06:09:40.170Z,101320.00
2022-10-10T06:12:06.487Z,101312.84
2022-10-10T06:14:32.827Z,101303.59
2022-10-10T06:16:59.235Z,101312.22
2022-10-10T06:19:25.738Z,101312.50
2022-10-10T06:21:52.062Z,101305.78
2022-10-10T06:24:18.390Z,101305.09
2022-10-10T06:26:44.716Z,101305.00
2022-10-10T06:29:11.031Z,101312.44
2022-10-10T06:31:39.454Z,101310.38
2022-10-10T06:34:06.000Z,101305.94
2022-10-10T06:36:32.304Z,101307.50
2022-10-10T06:38:58.634Z,101308.81
2022-10-10T06:41:24.960Z,101300.50
2022-10-10T06:43:51.783Z,101304.84
2022-10-10T06:46:18.222Z,101304.00
2022-10-10T06:48:44.541Z,101298.44
2022-10-10T06:51:12.915Z,101294.34
2022-10-10T06:53:39.250Z,101292.09
2022-10-10T06:56:05.568Z,101293.03
2022-10-10T06:58:31.901Z,101270.09
2022-10-10T07:00:59.275Z,101272.59
2022-10-10T07:03:25.848Z,101278.19
2022-10-10T07:05:52.458Z,101279.69
2022-10-10T07:08:19.454Z,101267.38
2022-10-10T07:10:46.287Z,101274.38
2022-10-10T07:13:12.938Z,101265.06
2022-10-10T07:15:39.255Z,101273.22
2022-10-10T07:18:05.578Z,101281.94
2022-10-10T07:20:31.967Z,101275.22
2022-10-10T07:22:58.294Z,101261.53
2022-10-10T07:25:24.740Z,101274.81
2022-10-10T07:27:51.078Z,101278.00
2022-10-10T07:30:17.416Z,101276.66
2022-10-10T07:32:43.782Z,101279.53
2022-10-10T07:35:10.120Z,101282.44
2022-10-10T07:37:36.623Z,101276.66
2022-10-10T07:40:02.997Z,101287.66
2022-10-10T07:42:29.347Z,101280.38
2022-10-10T07:44:55.662Z,101289.59
2022-10-10T07:47:22.048Z,101284.00
2022-10-10T07:49:48.366Z,101281.13
2022-10-10T07:52:14.695Z,101282.63
2022-10-10T07:54:41.073Z,101281.13
2022-10-10T07:57:07.382Z,101276.50
2022-10-10T07:59:33.706Z,101272.09
2022-10-10T08:02:00.137Z,101270.88
2022-10-10T08:04:26.527Z,101266.28
2022-10-10T08:06:52.837Z,101258.16
2022-10-10T08:09:19.155Z,101257.63
2022-10-10T08:11:45.470Z,101259.38
2022-10-10T08:14:11.787Z,101258.97
2022-10-10T08:16:41.017Z,101264.09
2022-10-10T08:19:07.416Z,101253.84
2022-10-10T08:21:36.000Z,101254.34
2022-10-10T08:24:02.665Z,101254.75
2022-10-10T08:26:28.969Z,101255.13
2022-10-10T08:28:55.272Z,101256.66
2022-10-10T08:31:21.628Z,101247.50
2022-10-10T08:33:48.074Z,101263.34
2022-10-10T08:36:15.494Z,101257.00
2022-10-10T08:38:41.836Z,101254.47
2022-10-10T08:41:13.814Z,101255.84
2022-10-10T08:43:49.698Z,101259.38
2022-10-10T08:46:27.077Z,101252.97
2022-10-10T08:48:55.675Z,101245.13
2022-10-10T08:51:25.188Z,101235.06
2022-10-10T08:53:52.047Z,101242.81
2022-10-10T08:56:20.886Z,101232.44
2022-10-10T08:58:48.279Z,101230.50
2022-10-10T09:01:15.858Z,101231.84
2022-10-10T09:03:45.269Z,101218.22
2022-10-10T09:06:19.204Z,101222.00
2022-10-10T09:08:49.466Z,101223.97
2022-10-10T09:11:28.219Z,101213.84
2022-10-10T09:14:00.829Z,101207.91
2022-10-10T09:16:33.118Z,101213.19
2022-10-10T09:19:12.493Z,101211.59
2022-10-10T09:21:41.182Z,101209.53
2022-10-10T09:24:10.449Z,101215.25
2022-10-10T09:26:41.330Z,101211.16
2022-10-10T09:29:23.342Z,101210.69
2022-10-10T09:31:54.364Z,101212.19
2022-10-10T09:34:32.190Z,101204.53
2022-10-10T09:37:00.392Z,101206.22
2022-10-10T09:39:37.189Z,101202.06
2022-10-10T09:42:04.321Z,101196.06
2022-10-10T09:44:30.659Z,101198.72
2022-10-10T09:46:57.951Z,101191.81
2022-10-10T09:49:24.323Z,101183.41
2022-10-10T09:51:50.698Z,101189.34
2022-10-10T09:54:17.702Z,101185.50
2022-10-10T09:56:56.789Z,101178.06
2022-10-10T09:59:39.403Z,101182.31
2022-10-10T10:02:15.754Z,101175.16
2022-10-10T10:04:42.072Z,101178.25
2022-10-10T10:07:17.668Z,101184.25
2022-10-10T10:09:46.994Z,101181.22
2022-10-10T10:12:13.312Z,101179.34
2022-10-10T10:14:39.631Z,101178.75
2022-10-10T10:17:13.378Z,101166.13
2022-10-10T10:19:40.562Z,101170.19
2022-10-10T10:22:26.305Z,101174.06
2022-10-10T10:24:53.164Z,101179.69
2022-10-10T10:27:21.633Z,101168.56
2022-10-10T10:29:51.463Z,101164.66
2022-10-10T10:32:31.852Z,101174.41
2022-10-10T10:35:04.739Z,101170.44
2022-10-10T10:37:35.163Z,101162.91
2022-10-10T10:40:20.229Z,101155.00
2022-10-10T10:43:09.586Z,101156.91
2022-10-10T10:45:39.051Z,101147.44
2022-10-10T10:48:09.948Z,101145.63
2022-10-10T10:50:42.985Z,101156.09
2022-10-10T10:53:17.672Z,101133.91
2022-10-10T10:55:49.599Z,101138.03
2022-10-10T10:59:05.795Z,101133.75
2022-10-10T11:01:44.947Z,101131.94
2022-10-10T11:05:15.951Z,101124.56
2022-10-10T11:07:17.676Z,101120.78
2022-10-10T11:09:51.366Z,101125.25
2022-10-10T11:12:21.878Z,101122.78
2022-10-10T11:14:58.116Z,101126.66
2022-10-10T11:17:24.387Z,101128.88
2022-10-10T11:19:56.712Z,101123.09
2022-10-10T11:22:24.985Z,101115.91
2022-10-10T11:25:03.406Z,101120.88
2022-10-10T11:27:43.094Z,101116.91
2022-10-10T11:30:15.855Z,101123.53
2022-10-10T11:32:56.480Z,101121.13
2022-10-10T11:35:24.867Z,101114.19
2022-10-10T11:37:53.322Z,101113.38
2022-10-10T11:40:24.993Z,101122.22
2022-10-10T11:42:52.801Z,101116.50
2022-10-10T11:45:20.915Z,101113.63
2022-10-10T11:47:56.414Z,101107.94
2022-10-10T11:50:23.829Z,101099.25
2022-10-10T11:52:51.951Z,101096.59
2022-10-10T11:55:20.162Z,101098.16
2022-10-10T11:57:48.110Z,101101.47
2022-10-10T12:00:15.082Z,101098.50
2022-10-10T12:02:41.482Z,101098.81
2022-10-10T12:05:18.360Z,101093.03
2022-10-10T12:07:59.896Z,101093.78
2022-10-10T12:10:36.464Z,101090.97
2022-10-10T12:13:09.895Z,101080.22
2022-10-10T12:15:41.341Z,101093.38
2022-10-10T12:18:22.521Z,101091.72
2022-10-10T12:20:48.846Z,101088.44
2022-10-10T12:23:20.130Z,101087.91
2022-10-10T12:25:47.539Z,101087.34
2022-10-10T12:28:14.031Z,101096.59
2022-10-10T12:30:57.984Z,101088.94
2022-10-10T12:33:33.865Z,101090.19
2022-10-10T12:36:21.491Z,101086.47
2022-10-10T12:39:07.647Z,101094.13
2022-10-10T12:41:47.516Z,101095.16
2022-10-10T12:44:23.599Z,101095.72
2022-10-10T12:47:08.865Z,101091.19
2022-10-10T12:49:35.195Z,101084.41
2022-10-10T12:52:04.046Z,101084.00
2022-10-10T12:54:31.771Z,101077.50
2022-10-10T12:57:09.134Z,101073.19
2022-10-10T12:59:35.638Z,101064.94
2022-10-10T13:02:04.017Z,101061.97
2022-10-10T13:04:30.382Z,101055.84
2022-10-10T13:06:57.059Z,101060.44
2022-10-10T13:09:31.069Z,101044.66
2022-10-10T13:12:01.227Z,101050.44
2022-10-10T13:14:36.279Z,101039.63
2022-10-10T13:17:02.599Z,101044.50
2022-10-10T13:19:28.955Z,101038.38
2022-10-10T13:21:55.272Z,101047.34
2022-10-10T13:24:27.054Z,101051.03
2022-10-10T13:26:53.496Z,101042.31
2022-10-10T13:29:28.823Z,101048.72
2022-10-10T13:31:55.334Z,101038.72
2022-10-10T13:34:24.876Z,101036.75
2022-10-10T13:36:54.686Z,101032.31
2022-10-10T13:39:21.192Z,101033.94
2022-10-10T13:41:47.533Z,101027.25
2022-10-10T13:44:14.397Z,101037.22
2022-10-10T13:46:40.717Z,101034.38
2022-10-10T13:49:33.351Z,101029.84
2022-10-10T13:52:04.275Z,101039.72
2022-10-10T13:54:43.637Z,101033.03
2022-10-10T13:57:12.158Z,101036.75
2022-10-10T13:59:38.485Z,101034.59
2022-10-10T14:02:09.285Z,101041.50
2022-10-10T14:04:37.873Z,101030.22
2022-10-10T14:07:04.130Z,101036.53
2022-10-10T14:09:37.593Z,101027.69
2022-10-10T14:12:04.588Z,101024.25
2022-10-10T14:14:49.652Z,101017.16
2022-10-10T14:17:16.101Z,101027.66
2022-10-10T14:19:43.111Z,101018.38
2022-10-10T14:22:09.439Z,101022.06
2022-10-10T14:24:35.779Z,101024.06
2022-10-10T14:27:15.325Z,101017.63
2022-10-10T14:29:41.653Z,101015.72
2022-10-10T14:32:09.237Z,101016.13
2022-10-10T14:34:35.584Z,101016.06
2022-10-10T14:37:01.907Z,101006.06
2022-10-10T14:39:28.236Z,101008.44
2022-10-10T14:41:54.608Z,101001.84
2022-10-10T14:44:20.930Z,100996.75
2022-10-10T14:46:47.259Z,100999.19
2022-10-10T14:49:17.948Z,100995.84
2022-10-10T14:51:44.261Z,100998.56
2022-10-10T14:54:12.622Z,100999.56
2022-10-10T14:57:07.105Z,100992.13
2022-10-10T14:59:47.628Z,100994.97
2022-10-10T15:02:14.641Z,100990.66
2022-10-10T15:04:40.960Z,100992.00
2022-10-10T15:07:15.331Z,100993.16
2022-10-10T15:09:56.470Z,100987.53
2022-10-10T15:12:29.055Z,100993.47
2022-10-10T15:14:55.481Z,100997.78
2022-10-10T15:17:21.834Z,100993.84
2022-10-10T15:19:48.229Z,100994.09
2022-10-10T15:22:14.575Z,100993.31
2022-10-10T15:24:40.953Z,100996.28
2022-10-10T15:27:07.268Z,100995.69
2022-10-10T15:29:33.587Z,101005.03
2022-10-10T15:32:00.343Z,101003.38
2022-10-10T15:34:26.747Z,101005.03
2022-10-10T15:36:53.091Z,101010.81
2022-10-10T15:39:19.413Z,101006.50
2022-10-10T15:41:45.740Z,101018.53
2022-10-10T15:44:12.361Z,101009.03
2022-10-10T15:46:39.507Z,101019.34
2022-10-10T15:49:05.822Z,101017.72
2022-10-10T15:51:32.246Z,101013.34
2022-10-10T15:53:58.734Z,101016.38
2022-10-10T15:56:25.046Z,101019.13
2022-10-10T15:58:57.460Z,101019.25
2022-10-10T16:01:23.890Z,101019.25
2022-10-10T16:03:50.259Z,101014.22
2022-10-10T16:06:17.214Z,101017.84
2022-10-10T16:08:43.633Z,101013.69
2022-10-10T16:11:13.442Z,101013.03
2022-10-10T16:13:39.952Z,101017.63
2022-10-10T16:16:06.963Z,101016.88
2022-10-10T16:18:37.815Z,101010.59
2022-10-10T16:21:06.816Z,101016.88
2022-10-10T16:23:33.222Z,101013.75
2022-10-10T16:26:00.517Z,101008.06
2022-10-10T16:28:27.184Z,101013.81
2022-10-10T16:30:53.674Z,101008.97
2022-10-10T16:33:20.300Z,101005.88
2022-10-10T16:35:46.742Z,101006.44
2022-10-10T16:38:13.265Z,101015.00
2022-10-10T16:40:39.687Z,101017.53
2022-10-10T16:43:06.129Z,101018.69
2022-10-10T16:45:32.473Z,101016.00
2022-10-10T16:47:58.819Z,101020.59
2022-10-10T16:50:25.133Z,101023.50
2022-10-10T16:52:51.458Z,101025.72
2022-10-10T16:55:17.778Z,101029.44
2022-10-10T16:57:44.099Z,101036.53
2022-10-10T17:00:10.531Z,101027.94
2022-10-10T17:02:38.834Z,101030.00
2022-10-10T17:05:05.898Z,101035.75
2022-10-10T17:07:32.409Z,101035.63
2022-10-10T17:09:58.734Z,101034.03
2022-10-10T17:12:25.067Z,101039.16
2022-10-10T17:14:51.381Z,101038.41
2022-10-10T17:17:19.238Z,101036.75
2022-10-10T17:19:45.929Z,101041.13
2022-10-10T17:22:12.233Z,101038.91
2022-10-10T17:24:38.626Z,101037.34
2022-10-10T17:27:05.118Z,101041.56
2022-10-10T17:29:31.838Z,101036.59
2022-10-10T17:32:00.607Z,101036.59
2022-10-10T17:34:33.687Z,101046.41
2022-10-10T17:37:00.589Z,101039.56
2022-10-10T17:39:26.912Z,101045.16
2022-10-10T17:41:53.297Z,101039.91
2022-10-10T17:44:19.662Z,101049.63
2022-10-10T17:46:46.070Z,101041.22
2022-10-10T17:49:12.390Z,101048.47
2022-10-10T17:51:39.025Z,101057.38
2022-10-10T17:54:06.274Z,101052.25
2022-10-10T17:56:32.582Z,101056.41
2022-10-10T17:59:02.824Z,101055.13
2022-10-10T18:01:50.425Z,101050.84
2022-10-10T18:04:22.312Z,101058.16
2022-10-10T18:07:05.617Z,101061.47
2022-10-10T18:10:09.541Z,101069.59
2022-10-10T18:12:51.472Z,101070.56
2022-10-10T18:17:59.055Z,101075.81
2022-10-10T18:20:25.396Z,101071.97
2022-10-10T18:22:53.685Z,101084.56
2022-10-10T18:25:25.127Z,101085.66
2022-10-10T18:27:51.659Z,101080.28
2022-10-10T18:30:17.997Z,101086.06
2022-10-10T18:32:44.318Z,101083.25
2022-10-10T18:35:10.633Z,101088.84
2022-10-10T18:37:36.949Z,101093.31
2022-10-10T18:40:03.550Z,101093.31
2022-10-10T18:42:29.877Z,101089.03
2022-10-10T18:44:56.213Z,101086.47
2022-10-10T18:47:22.550Z,101089.81
2022-10-10T18:49:48.887Z,101089.91
2022-10-10T18:52:15.226Z,101097.19
2022-10-10T18:54:41.546Z,101107.91
2022-10-10T18:57:07.857Z,101117.19
2022-10-10T18:59:34.188Z,101109.94
2022-10-10T19:02:01.257Z,101111.44
2022-10-10T19:04:27.576Z,101122.97
2022-10-10T19:06:57.597Z,101119.97
2022-10-10T19:09:24.208Z,101118.50
2022-10-10T19:11:50.939Z,101112.72
2022-10-10T19:14:18.037Z,101121.28
2022-10-10T19:16:44.472Z,101122.03
2022-10-10T19:19:11.282Z,101132.91
2022-10-10T19:21:37.656Z,101122.56
2022-10-10T19:24:04.424Z,101129.56
2022-10-10T19:26:33.250Z,101131.72
2022-10-10T19:29:04.348Z,101126.03
2022-10-10T19:31:33.082Z,101135.53
2022-10-10T19:33:59.733Z,101132.63
2022-10-10T19:36:26.048Z,101135.44
2022-10-10T19:38:52.381Z,101132.47
2022-10-10T19:41:18.708Z,101132.47
2022-10-10T19:43:46.566Z,101139.53
2022-10-10T19:46:13.677Z,101135.84
2022-10-10T19:48:40.113Z,101141.03
2022-10-10T19:51:07.074Z,101142.34
2022-10-10T19:53:33.594Z,101140.28
2022-10-10T19:56:00.723Z,101156.75
2022-10-10T19:58:27.768Z,101146.59
2022-10-10T20:00:54.077Z,101160.94
2022-10-10T20:03:20.389Z,101162.34
2022-10-10T20:05:46.707Z,101163.75
2022-10-10T20:08:13.318Z,101164.47
2022-10-10T20:10:39.863Z,101173.78
2022-10-10T20:13:06.175Z,101174.69
2022-10-10T20:15:32.495Z,101172.31
2022-10-10T20:17:58.817Z,101179.00
2022-10-10T20:20:25.128Z,101185.31
2022-10-10T20:22:51.433Z,101197.44
2022-10-10T20:25:17.764Z,101203.94
2022-10-10T20:27:44.098Z,101208.38
2022-10-10T20:30:10.615Z,101212.66
2022-10-10T20:32:36.941Z,101217.13
2022-10-10T20:35:03.329Z,101216.38
2022-10-10T20:37:29.649Z,101225.59
2022-10-10T20:39:55.995Z,101234.97
2022-10-10T20:42:22.306Z,101238.63
2022-10-10T20:44:49.181Z,101247.91
2022-10-10T20:47:15.501Z,101251.53
2022-10-10T20:49:41.801Z,101243.63
2022-10-10T20:52:08.109Z,101253.69
2022-10-10T20:54:36.121Z,101247.19
2022-10-10T20:57:02.429Z,101250.06
2022-10-10T20:59:29.230Z,101259.44
2022-10-10T21:01:55.602Z,101265.84
2022-10-10T21:04:21.954Z,101270.25
2022-10-10T21:06:48.298Z,101260.84
2022-10-10T21:09:14.613Z,101265.84
2022-10-10T21:11:41.075Z,101274.50
2022-10-10T21:14:07.434Z,101278.16
2022-10-10T21:16:34.741Z,101284.47
2022-10-10T21:19:01.062Z,101286.63
2022-10-10T21:21:28.233Z,101290.22
2022-10-10T21:23:56.401Z,101296.00
2022-10-10T21:26:23.646Z,101294.59
2022-10-10T21:28:50.213Z,101297.47
2022-10-10T21:31:17.525Z,101304.00
2022-10-10T21:33:43.859Z,101308.28
2022-10-10T21:36:10.403Z,101308.28
2022-10-10T21:38:37.087Z,101306.13
2022-10-10T21:41:04.214Z,101320.66
2022-10-10T21:43:30.705Z,101316.09
2022-10-10T21:46:02.013Z,101323.34
2022-10-10T21:48:28.613Z,101327.72
2022-10-10T21:50:58.416Z,101326.31
2022-10-10T21:53:24.764Z,101337.09
2022-10-10T21:55:51.094Z,101330.59
2022-10-10T21:58:17.431Z,101343.63
2022-10-10T22:00:43.792Z,101340.56
2022-10-10T22:03:10.167Z,101350.69
2022-10-10T22:05:36.492Z,101353.56
2022-10-10T22:08:02.798Z,101347.81
2022-10-10T22:10:29.124Z,101354.97
2022-10-10T22:12:55.454Z,101362.22
2022-10-10T22:15:21.992Z,101360.75
2022-10-10T22:17:48.323Z,101370.75
2022-10-10T22:20:14.654Z,101367.97
2022-10-10T22:22:41.390Z,101363.53
2022-10-10T22:25:11.637Z,101372.16
2022-10-10T22:27:37.978Z,101366.31
2022-10-10T22:30:04.817Z,101375.78
2022-10-10T22:32:31.131Z,101367.69
2022-10-10T22:34:57.860Z,101374.22
2022-10-10T22:37:24.292Z,101366.31
2022-10-10T22:39:50.639Z,101364.78
2022-10-10T22:42:16.953Z,101370.56
2022-10-10T22:44:43.282Z,101377.84
2022-10-10T22:47:09.601Z,101387.13
2022-10-10T22:49:37.886Z,101399.41
2022-10-10T22:52:05.037Z,101395.03
2022-10-10T22:54:31.578Z,101397.91
2022-10-10T22:56:57.898Z,101397.19
2022-10-10T22:59:24.227Z,101409.44
2022-10-10T23:01:51.381Z,101407.31
2022-10-10T23:04:17.768Z,101418.09
2022-10-10T23:06:44.084Z,101419.50
2022-10-10T23:09:11.633Z,101419.50
2022-10-10T23:11:37.964Z,101432.41
2022-10-10T23:14:04.454Z,101429.53
2022-10-10T23:16:32.876Z,101445.44
2022-10-10T23:18:59.355Z,101445.53
2022-10-10T23:21:25.691Z,101447.56
2022-10-10T23:23:51.994Z,101451.22
2022-10-10T23:26:18.323Z,101449.69
2022-10-10T23:28:44.905Z,101459.00
2022-10-10T23:31:11.282Z,101467.63
2022-10-10T23:33:38.110Z,101471.28
2022-10-10T23:36:05.566Z,101486.44
2022-10-10T23:38:32.874Z,101485.69
2022-10-10T23:40:59.194Z,101488.47
2022-10-10T23:43:25.568Z,101492.75
2022-10-10T23:45:51.898Z,101499.91
2022-10-10T23:48:18.222Z,101514.44
2022-10-10T23:50:44.542Z,101510.78
2022-10-10T23:53:10.886Z,101522.31
2022-10-10T23:55:37.215Z,101515.78
2022-10-10T23:58:03.548Z,101522.84
